This is the latest recevied weather packets stored in our database for station/object SP9MUF-14. If no packets are shown the sender has not sent any weather packets the latest 10 day(s).
| Time | Temp. | Humidity | Pressure | Rain* | Wind** | Luminosity | Snow |
|---|---|---|---|---|---|---|---|
| 1777539283 | 10.56° C | 38% | 1030.8 hPa | 0 mm | - | 364 W/m² | - |
| 1777538674 | 10° C | 38% | 1031 hPa | 0 mm | - | 678 W/m² | - |
| 1777538370 | 10° C | 38% | 1031.1 hPa | 0 mm | - | 647 W/m² | - |
| 1777538067 | 8.89° C | 39% | 1031.2 hPa | 0 mm | - | 622 W/m² | - |
| 1777537763 | 8.89° C | 40% | 1031.4 hPa | 0 mm | - | 630 W/m² | - |
| 1777537458 | 7.78° C | 39% | 1031.4 hPa | 0 mm | - | 605 W/m² | - |
| 1777537155 | 7.78° C | 43% | 1031.4 hPa | 0 mm | - | 274 W/m² | - |
| 1777536547 | 6.67° C | 43% | 1031.6 hPa | 0 mm | - | 572 W/m² | - |
| 1777536243 | 6.67° C | 44% | 1032.3 hPa | 0 mm | - | 510 W/m² | - |
| 1777535634 | 6.67° C | 44% | 1031.6 hPa | 0 mm | - | 488 W/m² | - |
| 1777535027 | 6.67° C | 46% | 1031.6 hPa | 0 mm | - | 469 W/m² | - |
| 1777534419 | 6.67° C | 48% | 1032 hPa | 0 mm | - | 447 W/m² | - |
| 1777534114 | 5.56° C | 49% | 1031.8 hPa | 0 mm | - | 433 W/m² | - |
| 1777533811 | 5.56° C | 48% | 1031.7 hPa | 0 mm | - | 419 W/m² | - |
| 1777533506 | 5.56° C | 49% | 1031.8 hPa | 0 mm | - | 407 W/m² | - |
| 1777533202 | 5.56° C | 50% | 1031.8 hPa | 0 mm | - | 384 W/m² | - |
| 1777532598 | 5° C | 52% | 1032 hPa | 0 mm | - | 51 W/m² | - |
| 1777531986 | 5° C | 54% | 1032.2 hPa | 0 mm | - | 48 W/m² | - |
| 1777531682 | 5° C | 55% | 1032.3 hPa | 0 mm | - | 47 W/m² | - |
| 1777531382 | 3.89° C | 57% | 1032.4 hPa | 0 mm | - | 46 W/m² | - |
| 1777531078 | 3.89° C | 58% | 1032.3 hPa | 0 mm | - | 47 W/m² | - |
| 1777530774 | 3.89° C | 58% | 1032.3 hPa | 0 mm | - | 47 W/m² | - |
| 1777530162 | 2.78° C | 61% | 1032.4 hPa | 0 mm | - | 44 W/m² | - |
| 1777529862 | 2.78° C | 62% | 1032.4 hPa | 0 mm | - | 42 W/m² | - |
| 1777529554 | 2.78° C | 63% | 1032.3 hPa | 0 mm | - | 41 W/m² | - |
* Rain latest hour (hover to see other rain measurements)
** Current wind speed in m/s (hover to see current wind gust speed)